CFG1AY EGKK-EDDF
Flight info
| Callsign | CFG1AY |
|---|---|
| Flight time | 1h 3m |
| Altitude | 35000 |
| Route | DVR UL9 KONAN UL607 KOK DCT REMBA UL607 SPI T180 NIVNU/N0378F230 T847 IMCOM IMCOM1B |
| Aircraft | E190/M-SDE1E2E3FGIRWY/LB1 |
Departure
| Time | 2026-05-05 09:35 |
|---|---|
| Airport | London Gatwick Airport (EGKK) |
Arrival
| Time | 2026-05-05 10:39 |
|---|---|
| Airport | Frankfurt Main Airport (EDDF) |
| Time | Latitude | Longitude | Altitude | Speed | Heading |
|---|---|---|---|---|---|
| 2026-05-05 08:52 | 51.15832 | -0.17634 | 212 ft | 0 kts | 347° |
| 2026-05-05 09:21 | 51.15830 | -0.17633 | 204 ft | 2 kts | 347° |
| 2026-05-05 09:22 | 51.15805 | -0.17623 | 205 ft | 4 kts | 341° |
| 2026-05-05 09:22 | 51.15780 | -0.17607 | 212 ft | 4 kts | 329° |
| 2026-05-05 09:22 | 51.15760 | -0.17582 | 214 ft | 4 kts | 297° |
| 2026-05-05 09:22 | 51.15756 | -0.17557 | 207 ft | 1 kts | 257° |
| 2026-05-05 09:23 | 51.15756 | -0.17552 | 206 ft | 0 kts | 257° |
| 2026-05-05 09:26 | 51.15754 | -0.17566 | 213 ft | 4 kts | 257° |
| 2026-05-05 09:26 | 51.15745 | -0.17638 | 212 ft | 9 kts | 258° |
| 2026-05-05 09:26 | 51.15729 | -0.17748 | 205 ft | 11 kts | 264° |
| 2026-05-05 09:26 | 51.15713 | -0.17870 | 208 ft | 11 kts | 256° |
| 2026-05-05 09:27 | 51.15700 | -0.17960 | 208 ft | 10 kts | 256° |
| 2026-05-05 09:27 | 51.15684 | -0.18077 | 204 ft | 12 kts | 259° |
| 2026-05-05 09:27 | 51.15663 | -0.18220 | 208 ft | 14 kts | 257° |
| 2026-05-05 09:27 | 51.15646 | -0.18356 | 208 ft | 9 kts | 258° |
| 2026-05-05 09:28 | 51.15630 | -0.18470 | 214 ft | 12 kts | 257° |
| 2026-05-05 09:28 | 51.15611 | -0.18610 | 203 ft | 14 kts | 258° |
| 2026-05-05 09:28 | 51.15589 | -0.18762 | 212 ft | 14 kts | 256° |
| 2026-05-05 09:28 | 51.15539 | -0.18827 | 208 ft | 9 kts | 181° |
| 2026-05-05 09:29 | 51.15467 | -0.18804 | 204 ft | 12 kts | 167° |
| 2026-05-05 09:29 | 51.15377 | -0.18772 | 208 ft | 15 kts | 168° |
| 2026-05-05 09:29 | 51.15271 | -0.18736 | 206 ft | 14 kts | 167° |
| 2026-05-05 09:29 | 51.15199 | -0.18710 | 207 ft | 11 kts | 168° |
| 2026-05-05 09:30 | 51.15139 | -0.18721 | 207 ft | 9 kts | 225° |
| 2026-05-05 09:30 | 51.15118 | -0.18828 | 206 ft | 12 kts | 258° |
| 2026-05-05 09:30 | 51.15100 | -0.18969 | 211 ft | 14 kts | 258° |
| 2026-05-05 09:30 | 51.15076 | -0.19133 | 204 ft | 16 kts | 257° |
| 2026-05-05 09:31 | 51.15051 | -0.19321 | 206 ft | 18 kts | 259° |
| 2026-05-05 09:31 | 51.15022 | -0.19518 | 204 ft | 19 kts | 258° |
| 2026-05-05 09:31 | 51.14994 | -0.19733 | 207 ft | 21 kts | 257° |
| 2026-05-05 09:31 | 51.14966 | -0.19935 | 207 ft | 18 kts | 257° |
| 2026-05-05 09:32 | 51.14937 | -0.20146 | 206 ft | 21 kts | 257° |
| 2026-05-05 09:32 | 51.14904 | -0.20385 | 203 ft | 23 kts | 256° |
| 2026-05-05 09:32 | 51.14870 | -0.20626 | 207 ft | 23 kts | 257° |
| 2026-05-05 09:32 | 51.14835 | -0.20878 | 206 ft | 21 kts | 257° |
| 2026-05-05 09:33 | 51.14807 | -0.21076 | 208 ft | 15 kts | 257° |
| 2026-05-05 09:33 | 51.14782 | -0.21198 | 207 ft | 11 kts | 253° |
| 2026-05-05 09:33 | 51.14764 | -0.21332 | 204 ft | 14 kts | 259° |
| 2026-05-05 09:33 | 51.14708 | -0.21403 | 204 ft | 9 kts | 176° |
| 2026-05-05 09:34 | 51.14651 | -0.21351 | 208 ft | 10 kts | 148° |
| 2026-05-05 09:34 | 51.14579 | -0.21314 | 209 ft | 12 kts | 162° |
| 2026-05-05 09:34 | 51.14517 | -0.21211 | 211 ft | 13 kts | 99° |
| 2026-05-05 09:34 | 51.14533 | -0.21073 | 208 ft | 0 kts | 77° |
| 2026-05-05 09:35 | 51.14535 | -0.21058 | 209 ft | 8 kts | 77° |
| 2026-05-05 09:35 | 51.14828 | -0.18958 | 313 ft | 172 kts | 78° |
| 2026-05-05 09:35 | 51.15072 | -0.16869 | 1068 ft | 210 kts | 78° |
| 2026-05-05 09:36 | 51.15286 | -0.14723 | 1878 ft | 180 kts | 80° |
| 2026-05-05 09:36 | 51.15432 | -0.12847 | 2409 ft | 164 kts | 80° |
| 2026-05-05 09:36 | 51.15590 | -0.11091 | 2707 ft | 159 kts | 74° |
| 2026-05-05 09:36 | 51.15878 | -0.09376 | 2906 ft | 159 kts | 68° |
| 2026-05-05 09:37 | 51.16240 | -0.07741 | 3143 ft | 158 kts | 69° |
| 2026-05-05 09:37 | 51.16556 | -0.05995 | 3395 ft | 174 kts | 72° |
| 2026-05-05 09:37 | 51.16830 | -0.04081 | 3997 ft | 186 kts | 78° |
| 2026-05-05 09:37 | 51.16950 | -0.01942 | 4600 ft | 203 kts | 87° |
| 2026-05-05 09:38 | 51.16894 | 0.00410 | 5295 ft | 225 kts | 92° |
| 2026-05-05 09:38 | 51.16825 | 0.03066 | 5795 ft | 252 kts | 91° |
| 2026-05-05 09:38 | 51.16758 | 0.05922 | 6440 ft | 263 kts | 91° |
| 2026-05-05 09:38 | 51.16682 | 0.08886 | 7052 ft | 271 kts | 91° |
| 2026-05-05 09:39 | 51.16613 | 0.11910 | 7664 ft | 275 kts | 91° |
| 2026-05-05 09:39 | 51.16546 | 0.14974 | 8301 ft | 278 kts | 91° |
| 2026-05-05 09:39 | 51.16479 | 0.18072 | 8946 ft | 281 kts | 91° |
| 2026-05-05 09:39 | 51.16416 | 0.21181 | 9606 ft | 285 kts | 91° |
| 2026-05-05 09:40 | 51.16359 | 0.24352 | 10258 ft | 287 kts | 91° |
| 2026-05-05 09:40 | 51.16303 | 0.27555 | 10885 ft | 289 kts | 91° |
| 2026-05-05 09:40 | 51.16242 | 0.30769 | 11520 ft | 292 kts | 91° |
| 2026-05-05 09:40 | 51.16181 | 0.34017 | 12173 ft | 295 kts | 91° |
| 2026-05-05 09:41 | 51.16122 | 0.37293 | 12847 ft | 297 kts | 91° |
| 2026-05-05 09:41 | 51.16061 | 0.40591 | 13539 ft | 299 kts | 91° |
| 2026-05-05 09:41 | 51.16002 | 0.43919 | 14212 ft | 302 kts | 91° |
| 2026-05-05 09:41 | 51.15950 | 0.47288 | 14862 ft | 305 kts | 91° |
| 2026-05-05 09:42 | 51.15904 | 0.50696 | 15536 ft | 313 kts | 91° |
| 2026-05-05 09:42 | 51.15859 | 0.54230 | 16267 ft | 324 kts | 91° |
| 2026-05-05 09:42 | 51.15821 | 0.57805 | 17001 ft | 326 kts | 92° |
| 2026-05-05 09:42 | 51.15574 | 0.61437 | 17768 ft | 334 kts | 99° |
| 2026-05-05 09:43 | 51.15282 | 0.65169 | 18552 ft | 343 kts | 95° |
| 2026-05-05 09:43 | 51.15099 | 0.68996 | 19275 ft | 349 kts | 95° |
| 2026-05-05 09:43 | 51.14952 | 0.72886 | 20024 ft | 354 kts | 94° |
| 2026-05-05 09:43 | 51.14872 | 0.76829 | 20787 ft | 358 kts | 94° |
| 2026-05-05 09:44 | 51.14802 | 0.80823 | 21503 ft | 362 kts | 93° |
| 2026-05-05 09:44 | 51.14743 | 0.84822 | 22149 ft | 367 kts | 93° |
| 2026-05-05 09:44 | 51.14691 | 0.88923 | 22831 ft | 371 kts | 93° |
| 2026-05-05 09:44 | 51.14643 | 0.93070 | 23534 ft | 375 kts | 93° |
| 2026-05-05 09:45 | 51.14598 | 0.97257 | 24133 ft | 379 kts | 94° |
| 2026-05-05 09:45 | 51.14557 | 1.01481 | 24768 ft | 382 kts | 93° |
| 2026-05-05 09:45 | 51.14517 | 1.05675 | 25415 ft | 385 kts | 93° |
| 2026-05-05 09:45 | 51.14473 | 1.09954 | 26089 ft | 387 kts | 94° |
| 2026-05-05 09:46 | 51.14427 | 1.14237 | 26764 ft | 387 kts | 94° |
| 2026-05-05 09:46 | 51.14380 | 1.18545 | 27318 ft | 391 kts | 94° |
| 2026-05-05 09:46 | 51.14330 | 1.22920 | 27695 ft | 399 kts | 94° |
| 2026-05-05 09:46 | 51.14275 | 1.27400 | 28068 ft | 407 kts | 94° |
| 2026-05-05 09:47 | 51.14214 | 1.31945 | 28456 ft | 413 kts | 94° |
| 2026-05-05 09:47 | 51.14153 | 1.36487 | 28846 ft | 418 kts | 94° |
| 2026-05-05 09:47 | 51.14089 | 1.41230 | 28985 ft | 429 kts | 94° |
| 2026-05-05 09:47 | 51.14037 | 1.45937 | 29368 ft | 430 kts | 93° |
| 2026-05-05 09:48 | 51.13978 | 1.50724 | 29848 ft | 433 kts | 94° |
| 2026-05-05 09:48 | 51.13910 | 1.55519 | 30269 ft | 434 kts | 94° |
| 2026-05-05 09:48 | 51.13849 | 1.60351 | 30673 ft | 436 kts | 93° |
| 2026-05-05 09:48 | 51.13786 | 1.65179 | 31017 ft | 438 kts | 94° |
| 2026-05-05 09:49 | 51.13715 | 1.70032 | 31365 ft | 439 kts | 94° |
| 2026-05-05 09:49 | 51.13636 | 1.74900 | 31717 ft | 440 kts | 94° |
| 2026-05-05 09:49 | 51.13552 | 1.79793 | 32074 ft | 440 kts | 94° |
| 2026-05-05 09:49 | 51.13469 | 1.84667 | 32438 ft | 441 kts | 94° |
| 2026-05-05 09:50 | 51.13388 | 1.89554 | 32815 ft | 441 kts | 94° |
| 2026-05-05 09:50 | 51.13311 | 1.94376 | 33169 ft | 441 kts | 94° |
| 2026-05-05 09:50 | 51.13227 | 1.99263 | 33550 ft | 441 kts | 94° |
| 2026-05-05 09:50 | 51.13051 | 2.04124 | 33925 ft | 439 kts | 98° |
| 2026-05-05 09:51 | 51.12739 | 2.08953 | 34258 ft | 439 kts | 98° |
| 2026-05-05 09:51 | 51.12446 | 2.13804 | 34590 ft | 439 kts | 98° |
| 2026-05-05 09:51 | 51.12163 | 2.18650 | 34924 ft | 439 kts | 98° |
| 2026-05-05 09:51 | 51.11882 | 2.23530 | 34960 ft | 443 kts | 98° |
| 2026-05-05 09:52 | 51.11330 | 2.33254 | 34950 ft | 444 kts | 98° |
| 2026-05-05 09:52 | 51.10777 | 2.43033 | 34941 ft | 443 kts | 98° |
| 2026-05-05 09:53 | 51.10219 | 2.52845 | 34964 ft | 444 kts | 98° |
| 2026-05-05 09:53 | 51.09659 | 2.62587 | 34953 ft | 444 kts | 98° |
| 2026-05-05 09:54 | 51.08283 | 2.72098 | 34954 ft | 439 kts | 109° |
| 2026-05-05 09:54 | 51.06590 | 2.81378 | 34976 ft | 439 kts | 109° |
| 2026-05-05 09:55 | 51.04880 | 2.90713 | 34934 ft | 438 kts | 110° |
| 2026-05-05 09:55 | 51.03170 | 3.00018 | 34930 ft | 438 kts | 110° |
| 2026-05-05 09:56 | 51.01470 | 3.09261 | 34928 ft | 438 kts | 110° |
| 2026-05-05 09:56 | 50.99755 | 3.18560 | 34930 ft | 438 kts | 110° |
| 2026-05-05 09:57 | 50.98325 | 3.26277 | 34917 ft | 438 kts | 110° |
| 2026-05-05 09:57 | 50.96321 | 3.37052 | 34911 ft | 436 kts | 110° |
| 2026-05-05 09:58 | 50.94883 | 3.44749 | 34913 ft | 436 kts | 110° |
| 2026-05-05 09:58 | 50.93149 | 3.53990 | 34907 ft | 437 kts | 110° |
| 2026-05-05 09:59 | 50.91407 | 3.63214 | 34908 ft | 436 kts | 110° |
| 2026-05-05 09:59 | 50.89662 | 3.72424 | 34911 ft | 436 kts | 110° |
| 2026-05-05 10:00 | 50.87922 | 3.81585 | 34909 ft | 437 kts | 111° |
| 2026-05-05 10:00 | 50.86160 | 3.90822 | 34914 ft | 437 kts | 111° |
| 2026-05-05 10:01 | 50.84396 | 4.00030 | 34908 ft | 436 kts | 111° |
| 2026-05-05 10:01 | 50.82631 | 4.09165 | 34911 ft | 436 kts | 111° |
| 2026-05-05 10:02 | 50.80837 | 4.18345 | 34907 ft | 436 kts | 111° |
| 2026-05-05 10:02 | 50.79064 | 4.27496 | 34908 ft | 432 kts | 111° |
| 2026-05-05 10:03 | 50.77297 | 4.36582 | 34910 ft | 432 kts | 111° |
| 2026-05-05 10:03 | 50.75527 | 4.45617 | 34909 ft | 432 kts | 112° |
| 2026-05-05 10:04 | 50.73741 | 4.54707 | 34911 ft | 432 kts | 112° |
| 2026-05-05 10:04 | 50.71953 | 4.63723 | 34909 ft | 432 kts | 112° |
| 2026-05-05 10:05 | 50.70159 | 4.72776 | 34898 ft | 433 kts | 112° |
| 2026-05-05 10:05 | 50.68358 | 4.81795 | 34901 ft | 432 kts | 112° |
| 2026-05-05 10:06 | 50.66545 | 4.90836 | 34900 ft | 432 kts | 113° |
| 2026-05-05 10:06 | 50.64646 | 4.99821 | 34900 ft | 431 kts | 114° |
| 2026-05-05 10:07 | 50.62747 | 5.08816 | 34889 ft | 432 kts | 114° |
| 2026-05-05 10:07 | 50.60879 | 5.17746 | 34887 ft | 432 kts | 114° |
| 2026-05-05 10:08 | 50.58997 | 5.26734 | 34890 ft | 432 kts | 114° |
| 2026-05-05 10:08 | 50.57111 | 5.35718 | 34890 ft | 432 kts | 114° |
| 2026-05-05 10:09 | 50.55235 | 5.44620 | 34880 ft | 431 kts | 114° |
| 2026-05-05 10:09 | 50.53336 | 5.53596 | 34882 ft | 431 kts | 114° |
| 2026-05-05 10:10 | 50.51430 | 5.62572 | 34870 ft | 434 kts | 115° |
| 2026-05-05 10:10 | 50.49718 | 5.71604 | 34870 ft | 432 kts | 112° |
| 2026-05-05 10:11 | 50.48035 | 5.80703 | 34865 ft | 432 kts | 112° |
| 2026-05-05 10:11 | 50.46344 | 5.89704 | 34869 ft | 432 kts | 112° |
| 2026-05-05 10:12 | 50.44624 | 5.98798 | 34441 ft | 435 kts | 112° |
| 2026-05-05 10:12 | 50.43764 | 6.03330 | 34106 ft | 434 kts | 112° |
| 2026-05-05 10:12 | 50.42884 | 6.07932 | 33423 ft | 443 kts | 112° |
| 2026-05-05 10:13 | 50.41998 | 6.12567 | 32822 ft | 443 kts | 112° |
| 2026-05-05 10:13 | 50.41112 | 6.17200 | 32232 ft | 442 kts | 111° |
| 2026-05-05 10:13 | 50.40225 | 6.21829 | 31625 ft | 442 kts | 111° |
| 2026-05-05 10:13 | 50.39350 | 6.26385 | 31057 ft | 442 kts | 111° |
| 2026-05-05 10:14 | 50.38459 | 6.31006 | 30452 ft | 443 kts | 110° |
| 2026-05-05 10:14 | 50.37566 | 6.35631 | 29840 ft | 444 kts | 110° |
| 2026-05-05 10:14 | 50.36680 | 6.40275 | 29268 ft | 443 kts | 109° |
| 2026-05-05 10:14 | 50.35885 | 6.44943 | 28665 ft | 447 kts | 101° |
| 2026-05-05 10:15 | 50.35665 | 6.49805 | 28108 ft | 449 kts | 95° |
| 2026-05-05 10:15 | 50.35487 | 6.54686 | 27498 ft | 446 kts | 97° |
| 2026-05-05 10:15 | 50.35262 | 6.59496 | 26871 ft | 441 kts | 97° |
| 2026-05-05 10:15 | 50.35000 | 6.64244 | 26324 ft | 434 kts | 98° |
| 2026-05-05 10:16 | 50.34727 | 6.68918 | 25756 ft | 429 kts | 98° |
| 2026-05-05 10:16 | 50.34443 | 6.73546 | 25193 ft | 424 kts | 98° |
| 2026-05-05 10:16 | 50.34164 | 6.78066 | 24639 ft | 419 kts | 98° |
| 2026-05-05 10:16 | 50.33879 | 6.82586 | 24084 ft | 415 kts | 98° |
| 2026-05-05 10:17 | 50.33560 | 6.87048 | 23533 ft | 408 kts | 103° |
| 2026-05-05 10:17 | 50.32671 | 6.91178 | 22997 ft | 396 kts | 120° |
| 2026-05-05 10:17 | 50.31347 | 6.94949 | 22485 ft | 395 kts | 122° |
| 2026-05-05 10:17 | 50.30003 | 6.98705 | 21953 ft | 395 kts | 121° |
| 2026-05-05 10:18 | 50.28689 | 7.02474 | 21447 ft | 393 kts | 120° |
| 2026-05-05 10:18 | 50.27534 | 7.06344 | 20917 ft | 392 kts | 116° |
| 2026-05-05 10:18 | 50.26426 | 7.10223 | 20402 ft | 389 kts | 117° |
| 2026-05-05 10:18 | 50.25322 | 7.14013 | 19882 ft | 386 kts | 117° |
| 2026-05-05 10:19 | 50.24207 | 7.17811 | 19378 ft | 383 kts | 117° |
| 2026-05-05 10:19 | 50.23093 | 7.21576 | 18878 ft | 381 kts | 117° |
| 2026-05-05 10:19 | 50.21981 | 7.25325 | 18370 ft | 378 kts | 117° |
| 2026-05-05 10:19 | 50.20871 | 7.29031 | 17837 ft | 375 kts | 117° |
| 2026-05-05 10:20 | 50.19778 | 7.32665 | 17378 ft | 372 kts | 117° |
| 2026-05-05 10:20 | 50.19057 | 7.35152 | 17008 ft | 372 kts | 115° |
| 2026-05-05 10:20 | 50.17771 | 7.40739 | 16282 ft | 369 kts | 112° |
| 2026-05-05 10:20 | 50.16909 | 7.44486 | 15821 ft | 365 kts | 112° |
| 2026-05-05 10:21 | 50.16378 | 7.48341 | 15438 ft | 368 kts | 92° |
| 2026-05-05 10:21 | 50.16916 | 7.52247 | 15138 ft | 371 kts | 70° |
| 2026-05-05 10:21 | 50.17990 | 7.55925 | 14945 ft | 372 kts | 67° |
| 2026-05-05 10:21 | 50.18974 | 7.59654 | 14718 ft | 368 kts | 71° |
| 2026-05-05 10:22 | 50.19685 | 7.63330 | 14444 ft | 348 kts | 79° |
| 2026-05-05 10:22 | 50.20074 | 7.66965 | 14216 ft | 331 kts | 85° |
| 2026-05-05 10:22 | 50.20269 | 7.70471 | 13972 ft | 318 kts | 89° |
| 2026-05-05 10:22 | 50.20362 | 7.73873 | 13738 ft | 310 kts | 90° |
| 2026-05-05 10:23 | 50.20435 | 7.77229 | 13489 ft | 309 kts | 91° |
| 2026-05-05 10:23 | 50.20501 | 7.80587 | 13230 ft | 309 kts | 91° |
| 2026-05-05 10:23 | 50.20562 | 7.83942 | 12963 ft | 309 kts | 91° |
| 2026-05-05 10:23 | 50.20600 | 7.86170 | 12793 ft | 309 kts | 91° |
| 2026-05-05 10:24 | 50.20655 | 7.89528 | 12540 ft | 309 kts | 91° |
| 2026-05-05 10:24 | 50.20707 | 7.92875 | 12276 ft | 308 kts | 91° |
| 2026-05-05 10:24 | 50.20758 | 7.96206 | 12020 ft | 306 kts | 91° |
| 2026-05-05 10:24 | 50.20803 | 7.99520 | 11764 ft | 304 kts | 91° |
| 2026-05-05 10:25 | 50.20848 | 8.02820 | 11508 ft | 303 kts | 91° |
| 2026-05-05 10:25 | 50.20891 | 8.06065 | 11263 ft | 301 kts | 91° |
| 2026-05-05 10:25 | 50.20934 | 8.09372 | 11013 ft | 300 kts | 91° |
| 2026-05-05 10:25 | 50.20974 | 8.12581 | 10843 ft | 296 kts | 91° |
| 2026-05-05 10:26 | 50.21011 | 8.15793 | 10862 ft | 296 kts | 91° |
| 2026-05-05 10:26 | 50.21045 | 8.19027 | 10865 ft | 298 kts | 91° |
| 2026-05-05 10:26 | 50.21078 | 8.22240 | 10870 ft | 298 kts | 91° |
| 2026-05-05 10:26 | 50.21113 | 8.25484 | 10864 ft | 299 kts | 91° |
| 2026-05-05 10:27 | 50.21146 | 8.28740 | 10856 ft | 299 kts | 91° |
| 2026-05-05 10:27 | 50.21178 | 8.31977 | 10878 ft | 298 kts | 91° |
| 2026-05-05 10:27 | 50.21212 | 8.35226 | 10906 ft | 298 kts | 91° |
| 2026-05-05 10:27 | 50.21244 | 8.38477 | 10874 ft | 298 kts | 91° |
| 2026-05-05 10:28 | 50.21272 | 8.41721 | 10864 ft | 298 kts | 91° |
| 2026-05-05 10:28 | 50.21299 | 8.44959 | 10852 ft | 298 kts | 91° |
| 2026-05-05 10:28 | 50.21326 | 8.48159 | 10858 ft | 298 kts | 91° |
| 2026-05-05 10:28 | 50.21351 | 8.51411 | 10685 ft | 299 kts | 91° |
| 2026-05-05 10:29 | 50.21378 | 8.54657 | 10498 ft | 298 kts | 91° |
| 2026-05-05 10:29 | 50.21403 | 8.57900 | 10259 ft | 296 kts | 91° |
| 2026-05-05 10:29 | 50.21427 | 8.61107 | 9999 ft | 294 kts | 91° |
| 2026-05-05 10:29 | 50.21448 | 8.64303 | 9626 ft | 295 kts | 91° |
| 2026-05-05 10:30 | 50.21469 | 8.67498 | 9224 ft | 294 kts | 91° |
| 2026-05-05 10:30 | 50.21493 | 8.70693 | 8817 ft | 295 kts | 91° |
| 2026-05-05 10:30 | 50.21526 | 8.73846 | 8413 ft | 293 kts | 91° |
| 2026-05-05 10:30 | 50.21543 | 8.77005 | 8012 ft | 288 kts | 91° |
| 2026-05-05 10:31 | 50.21555 | 8.80110 | 7618 ft | 283 kts | 91° |
| 2026-05-05 10:31 | 50.21571 | 8.83161 | 7237 ft | 279 kts | 91° |
| 2026-05-05 10:31 | 50.21587 | 8.86164 | 6908 ft | 273 kts | 91° |
| 2026-05-05 10:31 | 50.21814 | 8.89076 | 6588 ft | 269 kts | 75° |
| 2026-05-05 10:32 | 50.22343 | 8.91806 | 6292 ft | 263 kts | 83° |
| 2026-05-05 10:32 | 50.22191 | 8.94582 | 5975 ft | 254 kts | 113° |
| 2026-05-05 10:32 | 50.21200 | 8.96751 | 5696 ft | 244 kts | 143° |
| 2026-05-05 10:32 | 50.19697 | 8.97845 | 5468 ft | 235 kts | 164° |
| 2026-05-05 10:33 | 50.18140 | 8.98593 | 5247 ft | 233 kts | 163° |
| 2026-05-05 10:33 | 50.16597 | 8.99349 | 5024 ft | 232 kts | 164° |
| 2026-05-05 10:33 | 50.15006 | 8.99628 | 4763 ft | 232 kts | 190° |
| 2026-05-05 10:33 | 50.13581 | 8.98571 | 4525 ft | 232 kts | 221° |
| 2026-05-05 10:34 | 50.12724 | 8.96490 | 4291 ft | 231 kts | 252° |
| 2026-05-05 10:34 | 50.12367 | 8.94082 | 4088 ft | 226 kts | 255° |
| 2026-05-05 10:34 | 50.11866 | 8.91835 | 4050 ft | 213 kts | 246° |
| 2026-05-05 10:34 | 50.11307 | 8.89718 | 4037 ft | 209 kts | 249° |
| 2026-05-05 10:35 | 50.10834 | 8.87574 | 4023 ft | 209 kts | 250° |
| 2026-05-05 10:35 | 50.10339 | 8.85427 | 3980 ft | 212 kts | 249° |
| 2026-05-05 10:35 | 50.09808 | 8.83232 | 3658 ft | 218 kts | 249° |
| 2026-05-05 10:35 | 50.09288 | 8.81011 | 3374 ft | 219 kts | 249° |
| 2026-05-05 10:36 | 50.08766 | 8.78772 | 3075 ft | 221 kts | 249° |
| 2026-05-05 10:36 | 50.08237 | 8.76550 | 2782 ft | 222 kts | 249° |
| 2026-05-05 10:36 | 50.07705 | 8.74298 | 2507 ft | 219 kts | 250° |
| 2026-05-05 10:36 | 50.07190 | 8.72115 | 2213 ft | 210 kts | 250° |
| 2026-05-05 10:37 | 50.06703 | 8.70045 | 1909 ft | 196 kts | 250° |
| 2026-05-05 10:37 | 50.06248 | 8.68117 | 1664 ft | 184 kts | 250° |
| 2026-05-05 10:37 | 50.05817 | 8.66313 | 1441 ft | 171 kts | 250° |
| 2026-05-05 10:37 | 50.05416 | 8.64613 | 1221 ft | 169 kts | 250° |
| 2026-05-05 10:38 | 50.05039 | 8.62968 | 999 ft | 154 kts | 251° |
| 2026-05-05 10:38 | 50.04684 | 8.61452 | 781 ft | 144 kts | 249° |
| 2026-05-05 10:38 | 50.04331 | 8.60017 | 595 ft | 140 kts | 250° |
| 2026-05-05 10:38 | 50.03990 | 8.58604 | 405 ft | 138 kts | 250° |
| 2026-05-05 10:39 | 50.03685 | 8.57306 | 357 ft | 117 kts | 248° |
| 2026-05-05 10:39 | 50.03456 | 8.56348 | 352 ft | 63 kts | 248° |
| 2026-05-05 10:39 | 50.03339 | 8.55861 | 347 ft | 38 kts | 252° |
| 2026-05-05 10:39 | 50.03311 | 8.55534 | 342 ft | 20 kts | 274° |
| 2026-05-05 10:40 | 50.03330 | 8.55354 | 344 ft | 12 kts | 280° |
| 2026-05-05 10:40 | 50.03339 | 8.55269 | 341 ft | 8 kts | 279° |
| 2026-05-05 10:40 | 50.03347 | 8.55209 | 341 ft | 5 kts | 288° |
| 2026-05-05 10:40 | 50.03379 | 8.55167 | 351 ft | 7 kts | 342° |
| 2026-05-05 10:41 | 50.03422 | 8.55195 | 348 ft | 7 kts | 50° |
| 2026-05-05 10:41 | 50.03443 | 8.55270 | 346 ft | 8 kts | 69° |
| 2026-05-05 10:41 | 50.03466 | 8.55363 | 350 ft | 10 kts | 69° |
| 2026-05-05 10:41 | 50.03493 | 8.55473 | 352 ft | 12 kts | 69° |
| 2026-05-05 10:42 | 50.03561 | 8.55763 | 346 ft | 16 kts | 70° |
| 2026-05-05 10:42 | 50.03602 | 8.55930 | 351 ft | 17 kts | 70° |
| 2026-05-05 10:42 | 50.03644 | 8.56108 | 356 ft | 18 kts | 69° |
| 2026-05-05 10:43 | 50.03691 | 8.56304 | 353 ft | 21 kts | 69° |
| 2026-05-05 10:43 | 50.03744 | 8.56525 | 354 ft | 23 kts | 69° |
| 2026-05-05 10:43 | 50.03801 | 8.56766 | 355 ft | 25 kts | 70° |
| 2026-05-05 10:43 | 50.03850 | 8.56974 | 353 ft | 19 kts | 70° |
| 2026-05-05 10:44 | 50.03896 | 8.57159 | 364 ft | 19 kts | 70° |
| 2026-05-05 10:44 | 50.03937 | 8.57335 | 361 ft | 19 kts | 69° |
| 2026-05-05 10:44 | 50.03979 | 8.57512 | 367 ft | 17 kts | 69° |
| 2026-05-05 10:44 | 50.04025 | 8.57700 | 368 ft | 19 kts | 69° |
| 2026-05-05 10:45 | 50.04060 | 8.57850 | 367 ft | 16 kts | 69° |
| 2026-05-05 10:45 | 50.04097 | 8.57998 | 370 ft | 11 kts | 69° |
| 2026-05-05 10:45 | 50.04120 | 8.58093 | 370 ft | 7 kts | 63° |
| 2026-05-05 10:45 | 50.04166 | 8.58153 | 366 ft | 11 kts | 27° |
| 2026-05-05 10:46 | 50.04234 | 8.58202 | 365 ft | 11 kts | 17° |
| 2026-05-05 10:46 | 50.04316 | 8.58187 | 369 ft | 13 kts | 339° |
| 2026-05-05 10:46 | 50.04408 | 8.58133 | 368 ft | 16 kts | 340° |
| 2026-05-05 10:46 | 50.04521 | 8.58068 | 366 ft | 13 kts | 340° |
| 2026-05-05 10:47 | 50.04604 | 8.58020 | 362 ft | 9 kts | 340° |
| 2026-05-05 10:47 | 50.04643 | 8.57998 | 360 ft | 3 kts | 340° |
| 2026-05-05 10:47 | 50.04644 | 8.57997 | 364 ft | 0 kts | 339° |
| 2026-05-05 10:48 | 50.04667 | 8.57983 | 360 ft | 6 kts | 339° |
| 2026-05-05 10:48 | 50.04720 | 8.57954 | 356 ft | 10 kts | 347° |
| 2026-05-05 10:48 | 50.04784 | 8.57994 | 362 ft | 12 kts | 51° |
| 2026-05-05 10:48 | 50.04818 | 8.58119 | 363 ft | 13 kts | 69° |
| 2026-05-05 10:49 | 50.04852 | 8.58260 | 360 ft | 15 kts | 70° |
| 2026-05-05 10:49 | 50.04891 | 8.58425 | 362 ft | 17 kts | 70° |
| 2026-05-05 10:49 | 50.04937 | 8.58614 | 360 ft | 20 kts | 69° |
| 2026-05-05 10:49 | 50.04986 | 8.58817 | 363 ft | 15 kts | 70° |
| 2026-05-05 10:50 | 50.05018 | 8.58957 | 365 ft | 13 kts | 70° |
| 2026-05-05 10:50 | 50.05046 | 8.59074 | 361 ft | 12 kts | 69° |
| 2026-05-05 10:50 | 50.05074 | 8.59186 | 360 ft | 10 kts | 69° |
| 2026-05-05 10:50 | 50.05093 | 8.59250 | 365 ft | 5 kts | 45° |
| 2026-05-05 10:51 | 50.05119 | 8.59249 | 359 ft | 6 kts | 342° |
| 2026-05-05 10:51 | 50.05157 | 8.59213 | 361 ft | 5 kts | 318° |
| 2026-05-05 10:51 | 50.05169 | 8.59196 | 358 ft | 0 kts | 316° |